Time;durP1;ratioP1;P1;durP2;ratioP2;P2;SDS_P1;SDS_P2;PMS_P1;PMS_P2;Temp;Humidity;BMP_temperature;BMP_pressure;BME280_temperature;BME280_humidity;BME280_pressure;Samples;Min_cycle;Max_cycle;Signal;HPM_P1;HPM_P2
2023/06/05 00:01:19;;;;;;;10.80;6.60;;;16.20;99.90;;;;;;4805094;29;20034;-59
2023/06/05 00:03:45;;;;;;;11.15;6.75;;;16.30;99.90;;;;;;4804945;29;20031;-60
2023/06/05 00:06:10;;;;;;;13.73;6.65;;;16.30;99.90;;;;;;4804928;29;20545;-59
2023/06/05 00:08:36;;;;;;;18.23;8.48;;;16.30;99.90;;;;;;4804917;29;20031;-59
2023/06/05 00:11:01;;;;;;;9.60;6.47;;;16.30;99.90;;;;;;4804600;29;20031;-58
2023/06/05 00:13:27;;;;;;;14.45;7.30;;;16.30;99.90;;;;;;4804958;29;20167;-60
2023/06/05 00:15:53;;;;;;;9.43;6.47;;;16.20;99.90;;;;;;4804541;29;20039;-59
2023/06/05 00:18:19;;;;;;;14.13;6.72;;;16.20;1.00;;;;;;4804685;29;20026;-60
2023/06/05 00:20:45;;;;;;;9.82;6.32;;;16.20;1.00;;;;;;4804754;29;20070;-60
2023/06/05 00:23:13;;;;;;;12.52;7.57;;;16.10;43.70;;;;;;4804400;29;20111;-59
2023/06/05 00:25:39;;;;;;;13.45;7.65;;;16.10;1.00;;;;;;4804497;29;20702;-61
2023/06/05 00:28:05;;;;;;;14.00;7.05;;;16.10;1.00;;;;;;4818420;29;20523;-60
2023/06/05 00:30:31;;;;;;;10.00;6.90;;;16.10;70.50;;;;;;4804794;29;20035;-60
2023/06/05 00:32:56;;;;;;;12.75;7.60;;;16.10;99.90;;;;;;4804330;29;20037;-60
2023/06/05 00:35:22;;;;;;;8.45;6.47;;;16.00;99.90;;;;;;4804615;29;20045;-60
2023/06/05 00:37:48;;;;;;;7.68;6.28;;;16.10;99.90;;;;;;4804208;29;20346;-60
2023/06/05 00:40:14;;;;;;;7.63;6.57;;;16.10;99.90;;;;;;4803860;29;20033;-60
2023/06/05 00:42:40;;;;;;;8.60;5.85;;;16.10;99.90;;;;;;4804444;29;20066;-59
2023/06/05 00:45:06;;;;;;;12.15;7.00;;;16.00;99.90;;;;;;4803971;29;20030;-58
2023/06/05 00:47:33;;;;;;;9.25;6.07;;;16.10;99.90;;;;;;4818312;29;20050;-59
2023/06/05 00:49:59;;;;;;;10.77;6.18;;;16.00;99.90;;;;;;4804116;29;20031;-59
2023/06/05 00:52:26;;;;;;;15.82;6.38;;;16.00;99.90;;;;;;4804012;29;20054;-59
2023/06/05 00:54:52;;;;;;;8.68;6.07;;;16.00;99.90;;;;;;4803826;29;20083;-59
2023/06/05 00:57:17;;;;;;;10.27;6.32;;;16.00;99.90;;;;;;4817656;29;20483;-59
2023/06/05 00:59:44;;;;;;;7.95;6.25;;;16.00;99.90;;;;;;4803406;29;20394;-59
2023/06/05 01:02:12;;;;;;;12.77;6.25;;;15.90;1.00;;;;;;4817513;29;20031;-60
2023/06/05 01:04:43;;;;;;;7.13;5.88;;;15.90;99.90;;;;;;4803834;29;20087;-60
2023/06/05 01:07:10;;;;;;;13.45;6.53;;;15.90;1.00;;;;;;4803681;29;20034;-61
2023/06/05 01:09:37;;;;;;;13.50;6.32;;;15.90;1.00;;;;;;4803982;29;20027;-59
2023/06/05 01:12:07;;;;;;;11.00;6.05;;;15.90;1.00;;;;;;4803959;29;20082;-60
2023/06/05 01:14:35;;;;;;;11.63;7.13;;;15.90;1.00;;;;;;4803755;29;20026;-60
2023/06/05 01:17:04;;;;;;;10.50;7.20;;;15.90;1.00;;;;;;4803475;29;20037;-58
2023/06/05 01:19:32;;;;;;;12.02;6.50;;;15.90;1.00;;;;;;4803869;29;20034;-60
2023/06/05 01:21:59;;;;;;;8.40;6.35;;;15.90;1.00;;;;;;4803529;29;20039;-61
2023/06/05 01:24:27;;;;;;;9.15;5.97;;;15.90;1.00;;;;;;4817458;29;20027;-60
2023/06/05 01:27:00;;;;;;;9.52;6.35;;;15.90;1.00;;;;;;4803704;29;20523;-59
2023/06/05 01:29:52;;;;;;;10.70;6.57;;;15.90;1.00;;;;;;4803839;29;20037;-60
2023/06/05 01:32:26;;;;;;;8.98;6.50;;;15.90;1.00;;;;;;4784848;29;20443;-59
2023/06/05 01:34:53;;;;;;;13.02;7.07;;;15.90;1.00;;;;;;4803335;29;20027;-60
2023/06/05 01:37:24;;;;;;;11.13;7.72;;;15.80;1.00;;;;;;4803821;29;20163;-60
2023/06/05 01:39:52;;;;;;;11.77;7.18;;;15.80;1.00;;;;;;4803426;29;20477;-59
2023/06/05 01:42:19;;;;;;;11.40;6.82;;;15.80;1.00;;;;;;4803388;29;20064;-60
2023/06/05 01:44:45;;;;;;;10.82;6.63;;;15.70;7.00;;;;;;4803525;29;20113;-59
2023/06/05 01:47:12;;;;;;;10.60;7.03;;;15.60;13.00;;;;;;4817185;29;20229;-59
2023/06/05 01:49:37;;;;;;;10.02;6.28;;;15.70;9.60;;;;;;4803809;29;20027;-59
2023/06/05 01:52:03;;;;;;;8.80;6.63;;;15.60;10.40;;;;;;4805931;29;20031;-59
2023/06/05 01:54:32;;;;;;;10.95;6.57;;;15.60;8.30;;;;;;4807069;29;20087;-60
2023/06/05 01:57:04;;;;;;;16.15;7.78;;;15.50;9.60;;;;;;4820692;29;20054;-60
2023/06/05 01:59:30;;;;;;;10.43;7.13;;;15.50;27.50;;;;;;4807310;29;20048;-59
2023/06/05 02:01:55;;;;;;;16.60;8.13;;;15.50;28.50;;;;;;4806934;29;20503;-59
2023/06/05 02:04:21;;;;;;;10.07;7.00;;;15.40;40.80;;;;;;4807018;29;20526;-60
2023/06/05 02:06:48;;;;;;;15.52;6.80;;;15.40;44.70;;;;;;4807111;29;20038;-60
2023/06/05 02:09:14;;;;;;;10.52;7.20;;;15.30;45.90;;;;;;4806634;29;20022;-59
2023/06/05 02:11:45;;;;;;;7.93;7.13;;;15.30;47.60;;;;;;4806883;29;20102;-59
2023/06/05 02:14:13;;;;;;;9.18;7.22;;;15.20;45.80;;;;;;4806845;29;20061;-59
2023/06/05 02:16:40;;;;;;;12.18;7.35;;;15.20;53.90;;;;;;4806882;29;20034;-61
2023/06/05 02:19:06;;;;;;;11.02;7.20;;;15.10;54.90;;;;;;4806487;29;20031;-59
2023/06/05 02:21:33;;;;;;;10.50;7.85;;;15.10;57.80;;;;;;4806820;29;20380;-59
2023/06/05 02:24:05;;;;;;;9.88;6.80;;;15.10;60.90;;;;;;4806520;29;20471;-59
2023/06/05 02:26:30;;;;;;;18.58;7.65;;;15.10;63.40;;;;;;4806441;29;20055;-59
2023/06/05 02:28:58;;;;;;;13.00;7.20;;;15.10;59.40;;;;;;4806447;29;20035;-60
2023/06/05 02:31:25;;;;;;;13.55;8.32;;;15.00;61.20;;;;;;4806700;29;20031;-59
2023/06/05 02:33:55;;;;;;;10.20;7.47;;;15.00;67.80;;;;;;4806400;29;20034;-60
2023/06/05 02:36:22;;;;;;;18.30;8.13;;;15.00;72.80;;;;;;4806501;29;20031;-60
2023/06/05 02:38:50;;;;;;;8.60;6.80;;;15.00;70.30;;;;;;4806487;29;20027;-60
2023/06/05 02:41:21;;;;;;;8.40;7.18;;;15.10;74.00;;;;;;4820039;29;20031;-59
2023/06/05 02:43:47;;;;;;;12.38;7.20;;;15.00;73.60;;;;;;4806277;29;20085;-60
2023/06/05 02:46:12;;;;;;;11.43;7.78;;;14.90;70.70;;;;;;4806305;29;20027;-59
2023/06/05 02:48:38;;;;;;;9.13;7.97;;;14.80;69.40;;;;;;4806412;29;20034;-60
2023/06/05 02:51:06;;;;;;;9.95;7.43;;;14.80;77.20;;;;;;4805917;29;20495;-59
2023/06/05 02:53:32;;;;;;;9.18;7.47;;;14.80;74.10;;;;;;4806544;29;20075;-59
2023/06/05 02:56:00;;;;;;;8.43;6.82;;;14.80;71.90;;;;;;4806273;29;20399;-59
2023/06/05 02:58:28;;;;;;;11.30;7.53;;;14.90;74.50;;;;;;4805941;29;20394;-60
2023/06/05 03:00:55;;;;;;;16.13;6.82;;;14.80;70.00;;;;;;4819794;29;20507;-58
2023/06/05 03:03:25;;;;;;;10.73;8.27;;;14.80;73.80;;;;;;4805834;29;20446;-60
2023/06/05 03:05:52;;;;;;;8.43;7.45;;;14.80;77.90;;;;;;4805661;29;20031;-59
2023/06/05 03:08:18;;;;;;;10.88;7.45;;;14.80;75.90;;;;;;4806119;29;20107;-58
2023/06/05 03:10:43;;;;;;;12.68;8.13;;;14.80;77.40;;;;;;4806040;29;20538;-59
2023/06/05 03:13:09;;;;;;;8.55;7.55;;;14.90;78.40;;;;;;4805631;29;20084;-59
2023/06/05 03:15:35;;;;;;;11.27;7.70;;;14.90;76.30;;;;;;4805970;29;20451;-60
2023/06/05 03:18:00;;;;;;;9.13;6.97;;;14.90;77.70;;;;;;4805544;29;20106;-60
2023/06/05 03:20:26;;;;;;;9.20;8.10;;;14.80;75.60;;;;;;4805587;29;20479;-60
2023/06/05 03:22:52;;;;;;;15.85;8.15;;;14.90;76.10;;;;;;4805629;29;20495;-60
2023/06/05 03:25:17;;;;;;;11.15;8.05;;;14.80;74.20;;;;;;4805352;29;20050;-59
2023/06/05 03:27:43;;;;;;;12.48;7.60;;;14.90;74.60;;;;;;4805568;29;20708;-60
2023/06/05 03:30:11;;;;;;;8.23;6.75;;;14.90;75.50;;;;;;4805584;29;20030;-60
2023/06/05 03:32:37;;;;;;;9.80;6.88;;;14.80;74.60;;;;;;4805526;29;20049;-59
2023/06/05 03:35:03;;;;;;;8.38;7.47;;;14.90;77.30;;;;;;4805169;29;20031;-59
2023/06/05 03:37:29;;;;;;;9.63;7.43;;;14.80;77.50;;;;;;4805544;29;20493;-60
2023/06/05 03:39:55;;;;;;;18.58;7.53;;;14.80;82.10;;;;;;4805237;29;20117;-59
2023/06/05 03:42:20;;;;;;;8.95;7.03;;;14.80;85.00;;;;;;4805362;29;20500;-60
2023/06/05 03:44:46;;;;;;;13.57;6.78;;;14.80;84.30;;;;;;4805374;29;20482;-59
2023/06/05 03:47:14;;;;;;;10.30;7.80;;;14.80;82.80;;;;;;4805106;29;20039;-60
2023/06/05 03:49:45;;;;;;;8.77;7.22;;;14.80;82.40;;;;;;4805302;29;20076;-60
2023/06/05 03:52:11;;;;;;;11.95;8.32;;;14.80;81.30;;;;;;4805080;29;20552;-60
2023/06/05 03:54:38;;;;;;;9.27;7.35;;;14.80;80.70;;;;;;4805270;29;20138;-58
2023/06/05 03:57:04;;;;;;;16.70;8.55;;;14.70;84.40;;;;;;4804777;29;20027;-59
2023/06/05 03:59:30;;;;;;;8.57;7.70;;;14.80;83.60;;;;;;4805216;29;20034;-59
2023/06/05 04:02:04;;;;;;;12.15;8.23;;;14.80;83.70;;;;;;4804827;29;20218;-58
2023/06/05 04:04:29;;;;;;;8.35;7.30;;;14.80;82.80;;;;;;4805164;29;20399;-59
2023/06/05 04:06:55;;;;;;;10.05;7.40;;;14.80;80.00;;;;;;4803539;29;20027;-59
2023/06/05 04:09:21;;;;;;;15.95;8.20;;;14.80;85.90;;;;;;4805027;29;20038;-58
2023/06/05 04:11:47;;;;;;;11.88;7.07;;;14.70;83.90;;;;;;4805026;29;20480;-59
2023/06/05 04:14:13;;;;;;;10.60;7.15;;;14.80;84.50;;;;;;4804050;29;20171;-60
2023/06/05 04:16:39;;;;;;;8.27;7.32;;;14.80;81.00;;;;;;4804910;29;20109;-59
2023/06/05 04:19:09;;;;;;;10.50;7.63;;;14.80;81.80;;;;;;4818323;29;20037;-59
2023/06/05 04:21:37;;;;;;;9.90;7.30;;;14.80;85.80;;;;;;4804947;29;20506;-58
2023/06/05 04:24:09;;;;;;;9.75;6.93;;;14.80;84.90;;;;;;4804598;29;20027;-60
2023/06/05 04:26:36;;;;;;;11.27;7.18;;;14.90;84.80;;;;;;4804659;29;20422;-59
2023/06/05 04:29:02;;;;;;;10.23;7.60;;;14.80;78.10;;;;;;4804279;29;20042;-60
2023/06/05 04:31:32;;;;;;;10.15;7.43;;;14.80;81.50;;;;;;4804584;29;20518;-59
2023/06/05 04:34:05;;;;;;;8.80;7.55;;;14.80;86.00;;;;;;4804297;29;20042;-60
2023/06/05 04:36:31;;;;;;;9.13;6.50;;;14.80;81.20;;;;;;4804448;29;20415;-59
2023/06/05 04:38:56;;;;;;;9.45;6.97;;;14.90;81.40;;;;;;4818142;29;20049;-60
2023/06/05 04:41:22;;;;;;;8.10;7.28;;;14.90;81.40;;;;;;4804428;29;20706;-59
2023/06/05 04:43:48;;;;;;;7.63;6.60;;;14.80;79.80;;;;;;4804224;29;20031;-58
2023/06/05 04:46:14;;;;;;;8.65;7.07;;;14.80;79.50;;;;;;4804244;29;20130;-59
2023/06/05 04:48:40;;;;;;;11.25;7.13;;;14.80;79.60;;;;;;4804254;29;20630;-59
2023/06/05 04:51:05;;;;;;;7.45;6.38;;;14.80;77.70;;;;;;4803859;29;20058;-60
2023/06/05 04:53:31;;;;;;;9.45;6.90;;;14.90;79.10;;;;;;4804244;29;20110;-59
2023/06/05 04:56:03;;;;;;;11.98;7.03;;;15.00;70.10;;;;;;4804031;29;20034;-58
2023/06/05 04:58:29;;;;;;;7.15;6.43;;;15.00;72.60;;;;;;4803937;29;20437;-59
2023/06/05 05:01:04;;;;;;;9.25;6.50;;;15.10;68.90;;;;;;4817889;29;20030;-60
2023/06/05 05:03:30;;;;;;;16.35;7.38;;;15.10;63.20;;;;;;4804176;29;20027;-59
2023/06/05 05:05:56;;;;;;;7.45;6.68;;;15.10;60.00;;;;;;4803717;29;20725;-60
2023/06/05 05:08:22;;;;;;;8.48;7.18;;;15.10;60.40;;;;;;4817812;29;20039;-59
2023/06/05 05:10:47;;;;;;;12.15;7.25;;;15.10;65.90;;;;;;4803924;29;20066;-59
2023/06/05 05:13:13;;;;;;;7.07;6.18;;;15.10;58.50;;;;;;4803474;29;20031;-59
2023/06/05 05:15:39;;;;;;;12.23;6.60;;;15.30;56.20;;;;;;4803784;29;20034;-59
2023/06/05 05:18:05;;;;;;;12.07;6.97;;;15.30;64.20;;;;;;4803636;29;20093;-60
2023/06/05 05:20:32;;;;;;;6.95;6.05;;;15.20;59.40;;;;;;4803743;29;20031;-59
2023/06/05 05:23:03;;;;;;;11.90;6.78;;;15.20;60.80;;;;;;4803503;29;20429;-58
2023/06/05 05:25:29;;;;;;;8.05;6.45;;;15.40;62.50;;;;;;4817589;29;20046;-59
2023/06/05 05:27:54;;;;;;;9.77;7.00;;;15.40;54.20;;;;;;4803351;29;20120;-61
2023/06/05 05:30:20;;;;;;;7.40;6.55;;;15.40;56.20;;;;;;4803657;29;20126;-59
2023/06/05 05:32:46;;;;;;;11.90;6.47;;;15.40;57.10;;;;;;4803662;29;20098;-60
2023/06/05 05:35:11;;;;;;;7.35;6.63;;;15.40;53.70;;;;;;4803826;29;20492;-59
2023/06/05 05:37:37;;;;;;;10.18;7.00;;;15.40;53.80;;;;;;4803469;29;20023;-61
2023/06/05 05:40:03;;;;;;;12.05;8.40;;;15.50;46.20;;;;;;4803447;29;20023;-59
2023/06/05 05:42:29;;;;;;;11.82;8.45;;;15.50;45.60;;;;;;4803601;29;20462;-59
2023/06/05 05:44:55;;;;;;;10.57;7.38;;;15.60;46.40;;;;;;4803337;29;20084;-59
2023/06/05 05:47:21;;;;;;;8.65;7.38;;;15.60;37.30;;;;;;4803502;29;20027;-59
2023/06/05 05:49:46;;;;;;;10.88;7.65;;;15.70;42.80;;;;;;4803349;29;20031;-60
2023/06/05 05:52:12;;;;;;;10.20;6.80;;;15.90;42.00;;;;;;4803565;29;20512;-60
2023/06/05 05:54:37;;;;;;;10.07;7.20;;;15.80;36.80;;;;;;4803589;29;20027;-60
2023/06/05 05:57:04;;;;;;;9.95;6.15;;;15.90;28.80;;;;;;4803035;29;20080;-59
2023/06/05 05:59:30;;;;;;;7.78;6.78;;;16.10;40.00;;;;;;4803465;29;20027;-60
2023/06/05 06:01:59;;;;;;;13.55;7.88;;;16.20;23.30;;;;;;4803200;29;20031;-59
2023/06/05 06:04:24;;;;;;;10.70;6.95;;;16.40;8.60;;;;;;4803187;29;20037;-59
2023/06/05 06:06:52;;;;;;;8.05;6.82;;;16.50;10.00;;;;;;4803342;29;20023;-60
2023/06/05 06:09:18;;;;;;;10.10;7.13;;;16.50;12.60;;;;;;4803447;29;20031;-59
2023/06/05 06:11:44;;;;;;;11.02;7.60;;;16.60;1.00;;;;;;4803195;29;20092;-60
2023/06/05 06:14:10;;;;;;;8.73;7.07;;;16.60;1.00;;;;;;4803196;29;20127;-58
2023/06/05 06:16:37;;;;;;;15.60;6.85;;;16.80;1.00;;;;;;4803356;29;20090;-59
2023/06/05 06:19:04;;;;;;;11.05;6.93;;;16.80;1.00;;;;;;4802833;29;20030;-60
2023/06/05 06:21:30;;;;;;;12.75;6.72;;;17.00;1.00;;;;;;4803351;29;20038;-60
2023/06/05 06:23:57;;;;;;;15.35;6.88;;;17.20;1.00;;;;;;4816994;29;20031;-60
2023/06/05 06:26:22;;;;;;;8.85;7.25;;;17.40;1.00;;;;;;4802933;29;20047;-59
2023/06/05 06:28:49;;;;;;;12.63;7.50;;;17.40;1.00;;;;;;4803153;29;20027;-58
2023/06/05 06:31:15;;;;;;;9.20;7.15;;;17.60;1.00;;;;;;4803091;29;20070;-60
2023/06/05 06:33:40;;;;;;;7.47;6.65;;;17.60;1.00;;;;;;4803057;29;20058;-59
2023/06/05 06:36:06;;;;;;;12.02;7.28;;;17.60;1.00;;;;;;4802811;29;20043;-59
2023/06/05 06:38:32;;;;;;;17.80;7.03;;;17.50;1.00;;;;;;4806035;29;20530;-59
2023/06/05 06:40:59;;;;;;;11.00;7.65;;;17.30;1.00;;;;;;4806291;29;20027;-59
2023/06/05 06:43:25;;;;;;;12.40;7.13;;;17.40;1.00;;;;;;4806776;29;20392;-60
2023/06/05 06:45:52;;;;;;;12.50;6.75;;;17.40;1.00;;;;;;4806160;29;20079;-59
2023/06/05 06:48:18;;;;;;;16.70;7.03;;;17.50;1.00;;;;;;4806181;29;20080;-60
2023/06/05 06:50:44;;;;;;;10.85;7.03;;;17.20;1.00;;;;;;4806355;29;20030;-60
2023/06/05 06:53:10;;;;;;;7.70;7.00;;;17.10;1.00;;;;;;4806011;29;20472;-59
2023/06/05 06:55:36;;;;;;;11.07;8.65;;;17.00;1.00;;;;;;4806243;29;20114;-59
2023/06/05 06:58:07;;;;;;;10.63;7.35;;;17.20;1.00;;;;;;4805897;29;20031;-60
2023/06/05 07:00:33;;;;;;;9.23;6.97;;;17.30;1.00;;;;;;4806052;29;20113;-59
2023/06/05 07:02:59;;;;;;;10.32;7.65;;;17.30;1.00;;;;;;4805693;29;20115;-61
2023/06/05 07:05:25;;;;;;;9.77;7.00;;;17.50;1.00;;;;;;4806158;29;20034;-60
2023/06/05 07:07:51;;;;;;;11.13;7.88;;;17.70;1.00;;;;;;4805852;29;20110;-59
2023/06/05 07:10:16;;;;;;;12.85;7.95;;;17.70;1.00;;;;;;4805927;29;20033;-61
2023/06/05 07:12:42;;;;;;;13.25;7.15;;;17.80;1.00;;;;;;4805961;29;20487;-58
2023/06/05 07:15:08;;;;;;;14.48;7.80;;;18.00;1.00;;;;;;4805627;29;20035;-59
2023/06/05 07:17:34;;;;;;;9.23;6.88;;;18.10;1.00;;;;;;4805742;29;20266;-59
2023/06/05 07:19:59;;;;;;;7.07;6.38;;;18.30;1.00;;;;;;4805679;29;20031;-61
2023/06/05 07:22:26;;;;;;;10.45;7.53;;;18.10;1.00;;;;;;4819510;29;20059;-59
2023/06/05 07:24:53;;;;;;;7.63;6.50;;;18.10;1.00;;;;;;4805221;29;20075;-60
2023/06/05 07:27:20;;;;;;;8.82;7.45;;;18.10;1.00;;;;;;4804728;29;20055;-60
2023/06/05 07:29:46;;;;;;;17.25;8.25;;;17.90;1.00;;;;;;4804445;29;20105;-60
2023/06/05 07:32:13;;;;;;;10.32;7.50;;;17.60;1.00;;;;;;4804530;29;20402;-60
2023/06/05 07:34:38;;;;;;;13.48;7.07;;;17.60;1.00;;;;;;4804643;29;20023;-61
2023/06/05 07:37:04;;;;;;;15.32;7.15;;;17.60;1.00;;;;;;4818068;29;20175;-60
2023/06/05 07:39:30;;;;;;;10.35;7.03;;;17.70;1.00;;;;;;4804615;29;20027;-59
2023/06/05 07:41:56;;;;;;;13.25;7.78;;;17.70;1.00;;;;;;4804328;29;20447;-60
2023/06/05 07:44:22;;;;;;;9.55;6.30;;;17.80;1.00;;;;;;4804283;29;20163;-60
2023/06/05 07:46:49;;;;;;;10.68;6.82;;;17.70;1.00;;;;;;4804313;29;20114;-60
2023/06/05 07:49:15;;;;;;;9.20;6.80;;;17.80;1.00;;;;;;4803190;29;20034;-60
2023/06/05 07:51:43;;;;;;;10.73;7.47;;;17.60;1.00;;;;;;4804263;29;20031;-58
2023/06/05 07:54:11;;;;;;;11.93;8.10;;;17.70;1.00;;;;;;4804395;29;20031;-60
2023/06/05 07:56:38;;;;;;;10.55;8.93;;;17.70;1.00;;;;;;4818231;29;20027;-60
2023/06/05 07:59:05;;;;;;;9.63;8.00;;;17.80;1.00;;;;;;4803900;29;20118;-61
2023/06/05 08:01:36;;;;;;;13.35;7.60;;;17.80;1.00;;;;;;4804211;29;20031;-58
2023/06/05 08:04:05;;;;;;;9.27;7.88;;;18.00;1.00;;;;;;4804241;29;20184;-59
2023/06/05 08:06:31;;;;;;;13.98;8.13;;;18.10;1.00;;;;;;4804056;29;20049;-60
2023/06/05 08:09:01;;;;;;;18.50;9.75;;;18.30;1.00;;;;;;4817967;29;20395;-59
2023/06/05 08:11:28;;;;;;;14.48;7.53;;;18.40;1.00;;;;;;4804130;29;20035;-58
2023/06/05 08:13:54;;;;;;;12.98;8.05;;;18.40;99.90;;;;;;4803727;29;20031;-59
2023/06/05 08:16:20;;;;;;;14.38;8.05;;;18.50;1.00;;;;;;4817969;29;20030;-60
2023/06/05 08:18:46;;;;;;;18.42;9.25;;;18.30;99.90;;;;;;4803929;29;20499;-61
2023/06/05 08:21:12;;;;;;;16.92;9.95;;;18.20;99.90;;;;;;4803722;29;20029;-60
2023/06/05 08:23:38;;;;;;;13.52;9.63;;;18.30;99.90;;;;;;4803884;29;20027;-60
2023/06/05 08:26:10;;;;;;;12.32;8.52;;;18.40;99.90;;;;;;4766686;29;1135444;-58
2023/06/05 08:28:38;;;;;;;11.30;9.02;;;18.40;1.00;;;;;;4804536;29;20071;-60
2023/06/05 08:31:05;;;;;;;22.45;12.88;;;18.50;99.90;;;;;;4804306;29;20023;-59
2023/06/05 08:33:32;;;;;;;9.77;7.90;;;18.50;99.90;;;;;;4804675;29;20031;-59
2023/06/05 08:36:05;;;;;;;13.85;9.35;;;18.50;99.90;;;;;;4803244;29;20117;-60
2023/06/05 08:38:31;;;;;;;12.25;11.05;;;18.70;99.90;;;;;;4804400;29;20099;-59
2023/06/05 08:41:01;;;;;;;12.63;9.77;;;18.70;99.90;;;;;;4804210;29;20471;-60
2023/06/05 08:43:28;;;;;;;13.45;9.02;;;18.90;99.90;;;;;;4804474;29;20031;-59
2023/06/05 08:45:57;;;;;;;9.85;8.85;;;18.90;99.90;;;;;;4804029;29;20107;-60
2023/06/05 08:48:24;;;;;;;14.38;9.35;;;18.80;99.90;;;;;;4804250;29;20503;-59
2023/06/05 08:50:51;;;;;;;10.80;8.30;;;18.70;99.90;;;;;;4804299;29;20490;-58
2023/06/05 08:53:18;;;;;;;13.65;9.18;;;18.70;99.90;;;;;;4804256;29;20027;-60
2023/06/05 08:55:50;;;;;;;18.38;9.60;;;18.80;99.90;;;;;;4804008;29;20130;-60
2023/06/05 08:58:16;;;;;;;11.73;9.15;;;18.90;99.90;;;;;;4804070;29;20433;-59
2023/06/05 09:00:42;;;;;;;9.80;8.55;;;19.00;99.90;;;;;;4803840;29;20053;-59
2023/06/05 09:03:14;;;;;;;17.40;8.68;;;19.00;99.90;;;;;;4804112;29;20030;-59
2023/06/05 09:05:40;;;;;;;14.00;8.45;;;19.10;99.90;;;;;;4804022;29;20026;-61
2023/06/05 09:08:06;;;;;;;21.63;11.05;;;19.30;99.90;;;;;;4803797;29;20042;-60
2023/06/05 09:10:32;;;;;;;15.35;8.93;;;19.50;99.90;;;;;;4803978;29;20452;-60
2023/06/05 09:13:00;;;;;;;12.65;9.45;;;19.40;99.90;;;;;;4803747;29;20114;-60
2023/06/05 09:15:30;;;;;;;11.98;9.55;;;19.40;99.90;;;;;;4817890;29;20043;-61
2023/06/05 09:18:10;;;;;;;11.18;9.20;;;19.40;99.90;;;;;;4803548;29;20034;-61
2023/06/05 09:20:47;;;;;;;12.60;9.00;;;19.50;99.90;;;;;;4817720;29;20395;-58
2023/06/05 09:23:29;;;;;;;11.23;9.55;;;19.40;1.00;;;;;;4803526;29;20045;-61
2023/06/05 09:25:58;;;;;;;16.00;9.93;;;19.50;99.90;;;;;;4803370;29;20042;-60
2023/06/05 09:28:24;;;;;;;11.93;10.65;;;19.80;99.90;;;;;;4803528;29;20039;-59
2023/06/05 09:31:08;;;;;;;14.18;11.07;;;19.90;1.00;;;;;;4803690;29;20061;-60
2023/06/05 09:33:34;;;;;;;13.55;9.82;;;19.90;1.00;;;;;;4803912;29;20035;-60
2023/06/05 09:36:03;;;;;;;14.80;10.73;;;19.80;99.90;;;;;;4803741;29;20538;-60
2023/06/05 09:38:29;;;;;;;12.70;10.50;;;19.90;97.10;;;;;;4803758;29;20466;-60
2023/06/05 09:41:07;;;;;;;16.95;10.35;;;20.00;99.90;;;;;;4803337;29;20446;-61
2023/06/05 09:43:33;;;;;;;12.32;10.18;;;20.20;1.00;;;;;;4803441;29;20058;-60
2023/06/05 09:46:05;;;;;;;14.90;10.90;;;20.30;99.90;;;;;;4803585;29;20130;-59
2023/06/05 09:48:32;;;;;;;10.30;8.55;;;20.20;99.90;;;;;;4803403;29;20039;-58
2023/06/05 09:51:09;;;;;;;13.57;9.60;;;20.20;99.90;;;;;;4803285;29;20460;-59
2023/06/05 09:53:38;;;;;;;10.05;9.00;;;20.50;99.90;;;;;;4803523;29;20047;-61
2023/06/05 09:56:04;;;;;;;13.77;9.02;;;20.50;1.00;;;;;;4803184;29;20057;-60
2023/06/05 09:58:30;;;;;;;11.52;9.23;;;20.70;1.00;;;;;;4803264;29;20707;-58
2023/06/05 10:01:00;;;;;;;9.88;8.82;;;20.70;1.00;;;;;;4803184;29;20345;-59
2023/06/05 10:03:27;;;;;;;14.68;10.88;;;20.80;1.00;;;;;;4803426;29;20084;-61
2023/06/05 10:05:53;;;;;;;11.10;9.90;;;21.00;71.40;;;;;;4803187;29;20037;-60
2023/06/05 10:08:19;;;;;;;18.05;10.27;;;21.00;1.00;;;;;;4803406;29;20066;-58
2023/06/05 10:10:46;;;;;;;13.18;9.85;;;21.10;99.90;;;;;;4802900;29;20039;-58
2023/06/05 10:13:12;;;;;;;11.60;9.65;;;21.10;99.90;;;;;;4805784;29;20379;-60
2023/06/05 10:15:39;;;;;;;14.70;10.30;;;20.90;1.00;;;;;;4806932;29;20039;-60
2023/06/05 10:18:06;;;;;;;9.82;8.73;;;21.00;99.90;;;;;;4805359;29;20023;-60
2023/06/05 10:20:34;;;;;;;15.95;9.85;;;20.80;1.00;;;;;;4806726;29;20121;-60
2023/06/05 10:23:04;;;;;;;11.18;9.75;;;20.70;1.00;;;;;;4806590;29;20155;-60
2023/06/05 10:25:30;;;;;;;11.60;10.40;;;20.70;99.90;;;;;;4806486;29;20500;-59
2023/06/05 10:28:31;;;;;;;11.07;9.98;;;20.60;61.60;;;;;;4806598;29;20039;-60
2023/06/05 10:31:11;;;;;;;13.13;9.68;;;20.70;1.00;;;;;;4806484;29;20060;-59
2023/06/05 10:33:56;;;;;;;16.83;9.13;;;20.90;99.90;;;;;;4806390;29;20038;-60
2023/06/05 10:37:07;;;;;;;13.43;9.32;;;21.00;1.00;;;;;;4806442;29;20035;-60
2023/06/05 10:39:34;;;;;;;13.80;10.30;;;21.00;99.90;;;;;;4806390;29;20033;-60
2023/06/05 10:42:01;;;;;;;11.52;10.38;;;21.20;1.00;;;;;;4806239;29;20026;-60
2023/06/05 10:44:42;;;;;;;17.00;10.52;;;21.20;1.00;;;;;;4806510;29;20031;-59
2023/06/05 10:47:35;;;;;;;15.48;10.18;;;21.30;25.70;;;;;;4806164;29;20539;-59
2023/06/05 10:50:16;;;;;;;12.75;9.68;;;21.30;1.10;;;;;;4791524;29;20173;-60
2023/06/05 10:52:42;;;;;;;13.35;10.65;;;21.40;99.90;;;;;;4806180;29;20031;-60
2023/06/05 10:55:09;;;;;;;10.40;9.05;;;21.30;87.70;;;;;;4805968;29;20360;-60
2023/06/05 10:58:15;;;;;;;16.40;9.57;;;21.30;27.40;;;;;;4805963;29;20118;-61
2023/06/05 11:01:16;;;;;;;10.98;9.88;;;21.30;99.90;;;;;;4806216;29;20093;-60
2023/06/05 11:03:59;;;;;;;11.38;9.77;;;21.20;1.00;;;;;;4806281;29;20027;-60
2023/06/05 11:06:26;;;;;;;10.15;9.05;;;21.10;99.90;;;;;;4805914;29;20030;-60
2023/06/05 11:09:14;;;;;;;10.15;8.68;;;21.20;60.30;;;;;;4805732;29;20034;-60
2023/06/05 11:12:01;;;;;;;13.27;9.60;;;21.10;1.00;;;;;;4805933;29;20133;-59
2023/06/05 11:14:47;;;;;;;10.73;9.35;;;21.10;99.90;;;;;;4806006;29;20038;-59
2023/06/05 11:17:34;;;;;;;14.60;9.55;;;21.00;99.90;;;;;;4805695;29;20030;-60
2023/06/05 11:20:05;;;;;;;17.92;9.20;;;21.00;99.90;;;;;;4805605;29;20105;-60
2023/06/05 11:22:31;;;;;;;11.35;8.52;;;20.80;99.90;;;;;;4805512;29;20118;-59
2023/06/05 11:25:16;;;;;;;12.30;10.00;;;21.00;1.00;;;;;;4819325;29;20434;-60
2023/06/05 11:28:02;;;;;;;12.52;9.18;;;21.10;1.00;;;;;;4805581;29;20031;-59
2023/06/05 11:30:33;;;;;;;10.52;8.48;;;21.20;1.00;;;;;;4805513;29;20031;-59
2023/06/05 11:33:13;;;;;;;11.35;9.25;;;21.20;74.80;;;;;;4805490;29;20042;-61
2023/06/05 11:35:40;;;;;;;10.30;8.93;;;21.20;99.90;;;;;;4819198;29;20035;-59
2023/06/05 11:38:11;;;;;;;10.43;8.80;;;21.00;1.00;;;;;;4805078;29;20114;-60
2023/06/05 11:40:37;;;;;;;15.23;9.77;;;21.00;1.00;;;;;;4805528;29;20034;-58
2023/06/05 11:43:05;;;;;;;16.48;10.68;;;20.90;99.90;;;;;;4805369;29;20031;-60
2023/06/05 11:45:32;;;;;;;15.38;10.15;;;20.90;1.00;;;;;;4805375;29;20015;-59
2023/06/05 11:48:12;;;;;;;14.52;10.13;;;20.90;1.00;;;;;;4805137;29;20035;-60
2023/06/05 11:50:50;;;;;;;14.27;9.73;;;21.00;99.90;;;;;;4805116;29;20027;-59
2023/06/05 11:53:16;;;;;;;15.95;9.77;;;20.90;99.90;;;;;;4805171;29;20027;-59
2023/06/05 11:58:24;;;;;;;13.55;9.68;;;20.70;99.90;;;;;;4804958;29;20490;-60
2023/06/05 12:00:51;;;;;;;11.43;9.90;;;20.60;99.90;;;;;;4819035;29;20448;-59
2023/06/05 12:03:22;;;;;;;11.80;10.32;;;20.40;99.90;;;;;;4805036;29;20038;-59
2023/06/05 12:05:49;;;;;;;13.30;9.27;;;20.30;1.00;;;;;;4818729;29;20026;-60
2023/06/05 12:08:30;;;;;;;13.25;10.02;;;20.30;1.00;;;;;;4804782;29;20118;-60
2023/06/05 12:10:56;;;;;;;12.93;9.93;;;20.30;99.90;;;;;;4804893;29;20031;-58
2023/06/05 12:13:22;;;;;;;12.40;9.95;;;20.20;99.90;;;;;;4804905;29;20368;-60
2023/06/05 12:16:00;;;;;;;15.25;11.38;;;20.10;92.00;;;;;;4804936;29;20442;-60
2023/06/05 12:18:33;;;;;;;11.10;10.00;;;19.90;99.90;;;;;;4804767;29;20034;-60
2023/06/05 12:21:02;;;;;;;14.45;9.90;;;19.80;99.90;;;;;;4818439;29;20026;-60
2023/06/05 12:23:30;;;;;;;16.85;12.05;;;19.80;1.00;;;;;;4804658;29;20039;-60
2023/06/05 12:26:03;;;;;;;15.13;11.55;;;19.60;1.00;;;;;;4804266;29;20089;-59
2023/06/05 12:28:30;;;;;;;15.70;11.40;;;19.40;1.00;;;;;;4804712;29;20476;-60
2023/06/05 12:30:56;;;;;;;12.88;11.27;;;19.30;1.00;;;;;;4804349;29;20749;-59
2023/06/05 12:33:25;;;;;;;14.10;11.32;;;19.20;1.00;;;;;;4804421;29;20523;-59
2023/06/05 12:36:06;;;;;;;13.02;10.98;;;19.10;1.00;;;;;;4803906;29;20035;-61
2023/06/05 12:38:37;;;;;;;15.18;10.77;;;19.00;1.00;;;;;;4804143;29;20057;-59
2023/06/05 12:41:06;;;;;;;26.27;13.20;;;18.90;1.00;;;;;;4804302;29;20023;-60
2023/06/05 12:43:32;;;;;;;15.05;13.45;;;18.80;11.90;;;;;;4804423;29;20027;-59
2023/06/05 12:45:58;;;;;;;14.23;11.18;;;18.70;1.00;;;;;;4804225;29;20107;-60
2023/06/05 12:48:24;;;;;;;14.60;12.75;;;18.80;1.00;;;;;;4818044;29;20039;-60
2023/06/05 12:50:50;;;;;;;16.83;12.32;;;18.70;6.80;;;;;;4803562;29;20045;-60
2023/06/05 12:53:16;;;;;;;16.58;13.23;;;18.60;22.00;;;;;;4804035;29;20034;-59